map of BJB home
BJB - Airport
Location
City:  Bojnord, Khorasan-e Shemli, Iran
ICAO:OIMN
IATA:BJB

Details
Type:Airport (Aerodrome, Airfield)
Latitude:3729'35"N (37.492958)
Longitude:5718'30"E (57.308219)
Datum:WGS 1984
Elevation:3499 ft (1066 m)
Variation:4.95E (WMM2015 magnetic declination)
0.06 annual change
Runways:1
Longest:10582 × 148 ft (3225 × 45 m), paved

Time
Time Zone:UTC+3:30 (DST+4:30)
Local Time:

Weather
METAR:OIMN 150100Z 06002KT 7000 NSC M01/M02 Q1022

Related Locations
Nearby:
Farthest:IPC: 11387 mi / 18325 km
Easter Island (Isla de Pascua, Rapa Nui) [Mataveri Intl], VS, CL

Find:

   beyond  
but within

Other Information
Maps:
NOTAMs:
Links:
Sources:

  
  • flag of Iran
  

Sectional Chart

Flight Planning
at skyvector.com

Satellite Image

Google Maps Satellite view

 

Copyright © 2004-2018 Karl L. Swartz. All rights reserved.
The Great Circle Mapper name and logo are trademarks of the Great Circle Mapper.
All other trademarks mentioned herein belong to their respective owners.
Please see credits for attibutions and further copyright information.

  Follow gcmap on Facebook Follow gcmap on Twitter Follow gcmap on Google+ GCmap on LinkedIn

hCard Microformat

Geo Microformat